M I D A S
Marine Information and Data Acquisition System
Tripno 2010 of the Zeeleeuw from 2010-10-12 08:21:20 to 2010-10-12 16:04:30
Back to CruiseResearch ActivitiesStationsMapUnderway DataData graphs

EquipmentUnitsComment
TimeDGPSUTC
LatitudeDGPSDM.mWGS84
LongitudeDGPSDM.mWGS84
HeadingGyrodeg 
SOGDGPSknotsSpeed over ground
COGDGPSdegCourse over ground
DepthEcho soundermeters200 kHz
Missing or incorrect values are displayed as -999
Navigation data collected by the RV Zeeleeuw from 2010-10-12 07:04:29 to 2010-10-13 10:25:50
                                                                                    Next 1000 lines
Time Latitude Longitude Heading SOG COG Depth
2010-10-12 07:04:39 51°13.662 2°55.961 125.7 0.1 16 -999
2010-10-12 07:04:43 51°13.662 2°55.961 125.6 -999 229 -999
2010-10-12 07:04:49 51°13.662 2°55.96 125.6 0.1 321 -999
2010-10-12 07:04:54 51°13.662 2°55.961 125.6 0.1 274 -999
2010-10-12 07:04:59 51°13.662 2°55.961 125.6 -999 53 -999
2010-10-12 07:05:04 51°13.662 2°55.961 125.6 -999 266 -999
2010-10-12 07:05:09 51°13.662 2°55.961 125.6 -999 1 -999
2010-10-12 07:05:14 51°13.662 2°55.961 125.3 -999 338 -999
2010-10-12 07:05:19 51°13.662 2°55.961 124.9 0.1 340 -999
2010-10-12 07:05:23 51°13.662 2°55.96 124.6 0.1 334 -999
2010-10-12 07:05:29 51°13.662 2°55.961 124.2 -999 22 -999
2010-10-12 07:05:34 51°13.662 2°55.961 123.9 -999 159 -999
2010-10-12 07:05:39 51°13.662 2°55.961 123.8 -999 321 -999
2010-10-12 07:05:43 51°13.662 2°55.961 123.8 -999 265 -999
2010-10-12 07:05:49 51°13.662 2°55.961 123.8 -999 45 -999
2010-10-12 07:05:54 51°13.662 2°55.961 124.1 -999 268 -999
2010-10-12 07:05:59 51°13.662 2°55.961 124.2 -999 69 -999
2010-10-12 07:06:03 51°13.662 2°55.961 124.6 0.1 116 -999
2010-10-12 07:06:08 51°13.662 2°55.961 125.2 0.1 127 -999
2010-10-12 07:06:14 51°13.662 2°55.961 125.7 -999 116 -999
2010-10-12 07:06:19 51°13.662 2°55.961 125.7 0.1 208 -999
2010-10-12 07:06:23 51°13.662 2°55.961 125.7 -999 90 -999
2010-10-12 07:06:28 51°13.662 2°55.961 124.9 0.1 317 -999
2010-10-12 07:06:34 51°13.662 2°55.961 124.2 0.1 303 -999
2010-10-12 07:06:39 51°13.662 2°55.961 123.7 -999 221 -999
2010-10-12 07:06:43 51°13.662 2°55.961 123.5 -999 345 -999
2010-10-12 07:06:49 51°13.662 2°55.961 123.4 -999 316 -999
2010-10-12 07:06:54 51°13.662 2°55.961 123.4 -999 127 -999
2010-10-12 07:06:59 51°13.662 2°55.961 123.7 0.1 101 -999
2010-10-12 07:07:03 51°13.662 2°55.961 124.3 0.1 113 -999
2010-10-12 07:07:08 51°13.662 2°55.961 124.9 0.1 150 -999
2010-10-12 07:07:14 51°13.662 2°55.961 125.2 0.1 128 -999
2010-10-12 07:07:19 51°13.662 2°55.961 125.6 0.1 116 -999
2010-10-12 07:07:24 51°13.662 2°55.961 125.7 0.1 220 -999
2010-10-12 07:07:29 51°13.662 2°55.961 125.7 0.1 347 -999
2010-10-12 07:07:34 51°13.662 2°55.961 125.5 -999 287 -999
2010-10-12 07:07:39 51°13.662 2°55.961 125.1 -999 95 -999
2010-10-12 07:07:43 51°13.662 2°55.961 124.6 0.1 329 -999
2010-10-12 07:07:49 51°13.662 2°55.96 124.3 0.1 331 -999
2010-10-12 07:07:53 51°13.662 2°55.96 124.1 0.1 330 -999
2010-10-12 07:07:59 51°13.662 2°55.961 123.9 0.1 132 -999
2010-10-12 07:08:04 51°13.662 2°55.961 123.9 0.1 131 -999
2010-10-12 07:08:09 51°13.662 2°55.961 123.9 0.1 153 -999
2010-10-12 07:08:14 51°13.661 2°55.961 124.2 0.1 138 -999
2010-10-12 07:08:19 51°13.662 2°55.961 124.8 0.1 145 -999
2010-10-12 07:08:23 51°13.662 2°55.961 125.4 0.1 54 -999
2010-10-12 07:08:29 51°13.661 2°55.961 126 0.1 144 -999
2010-10-12 07:08:34 51°13.661 2°55.961 126.1 0.1 298 -999
2010-10-12 07:08:38 51°13.661 2°55.961 126 0.1 312 -999
2010-10-12 07:08:43 51°13.662 2°55.961 125.5 0.1 341 -999
2010-10-12 07:08:48 51°13.661 2°55.961 125 -999 147 -999
2010-10-12 07:08:53 51°13.661 2°55.961 124.9 0.1 150 -999
2010-10-12 07:08:58 51°13.661 2°55.961 124.6 0.1 158 -999
2010-10-12 07:09:03 51°13.662 2°55.961 124.4 0.1 144 -999
2010-10-12 07:09:08 51°13.662 2°55.961 124.2 -999 335 -999
2010-10-12 07:09:13 51°13.662 2°55.961 124.2 -999 52 -999
2010-10-12 07:09:18 51°13.662 2°55.961 124.1 -999 102 -999
2010-10-12 07:09:23 51°13.662 2°55.961 124 -999 35 -999
2010-10-12 07:09:28 51°13.661 2°55.961 124 -999 93 -999
2010-10-12 07:09:33 51°13.662 2°55.961 124.2 -999 168 -999
2010-10-12 07:09:38 51°13.662 2°55.961 124.6 -999 217 -999
2010-10-12 07:09:43 51°13.662 2°55.961 125.2 -999 102 -999
2010-10-12 07:09:48 51°13.661 2°55.961 125.7 -999 155 -999
2010-10-12 07:09:53 51°13.661 2°55.961 125.9 -999 238 -999
2010-10-12 07:09:58 51°13.662 2°55.961 125.9 0.1 264 -999
2010-10-12 07:10:03 51°13.662 2°55.961 125.7 -999 359 -999
2010-10-12 07:10:08 51°13.662 2°55.961 125.2 -999 24 -999
2010-10-12 07:10:14 51°13.662 2°55.961 124.8 0.1 3 -999
2010-10-12 07:10:19 51°13.662 2°55.961 124.5 0.1 334 -999
2010-10-12 07:10:24 51°13.662 2°55.961 124.2 -999 245 -999
2010-10-12 07:10:29 51°13.662 2°55.96 123.9 0.1 250 -999
2010-10-12 07:10:34 51°13.662 2°55.96 123.7 -999 277 -999
2010-10-12 07:10:38 51°13.662 2°55.96 123.6 -999 11 -999
2010-10-12 07:10:43 51°13.662 2°55.96 123.6 -999 299 -999
2010-10-12 07:10:49 51°13.662 2°55.96 123.6 0.1 306 -999
2010-10-12 07:10:53 51°13.662 2°55.96 123.7 -999 231 -999
2010-10-12 07:10:59 51°13.662 2°55.961 123.9 0.1 149 -999
2010-10-12 07:11:04 51°13.662 2°55.961 124.1 0.1 126 -999
2010-10-12 07:11:09 51°13.662 2°55.961 124.1 0.1 117 -999
2010-10-12 07:11:14 51°13.662 2°55.961 124.2 0.1 135 -999
2010-10-12 07:11:19 51°13.662 2°55.961 124.3 0.1 129 -999
2010-10-12 07:11:23 51°13.662 2°55.961 124.6 -999 171 -999
2010-10-12 07:11:28 51°13.662 2°55.961 124.9 -999 190 -999
2010-10-12 07:11:33 51°13.662 2°55.961 124.9 0.1 152 -999
2010-10-12 07:11:39 51°13.662 2°55.96 125 -999 1 7.6
2010-10-12 07:11:43 51°13.662 2°55.961 125.1 -999 330 7.6
2010-10-12 07:11:48 51°13.662 2°55.96 125.2 -999 319 7.6
2010-10-12 07:11:53 51°13.662 2°55.96 125.2 -999 331 7.6
2010-10-12 07:11:58 51°13.662 2°55.96 125.2 0.1 332 7.6
2010-10-12 07:12:03 51°13.662 2°55.96 125.2 0.1 328 7.6
2010-10-12 07:12:08 51°13.662 2°55.96 125 0.1 327 7.5
2010-10-12 07:12:12 51°13.662 2°55.96 124.9 0.1 319 7.6
2010-10-12 07:12:17 51°13.662 2°55.96 124.6 -999 309 7.6
2010-10-12 07:12:22 51°13.662 2°55.96 124.4 -999 293 7.6
2010-10-12 07:12:28 51°13.662 2°55.96 124.2 -999 161 7.6
2010-10-12 07:12:32 51°13.662 2°55.96 124.1 -999 179 7.6
2010-10-12 07:12:37 51°13.662 2°55.96 124.1 -999 324 7.6
2010-10-12 07:12:42 51°13.662 2°55.96 124.1 0.1 314 7.6
2010-10-12 07:12:47 51°13.662 2°55.961 124.1 -999 320 7.6
2010-10-12 07:12:52 51°13.662 2°55.961 124.1 -999 83 7.6
2010-10-12 07:12:56 51°13.662 2°55.961 124.4 -999 284 7.6
2010-10-12 07:13:01 51°13.662 2°55.961 124.6 0.1 140 7.6
2010-10-12 07:13:07 51°13.662 2°55.961 124.9 0.1 138 7.8
2010-10-12 07:13:12 51°13.662 2°55.961 125.4 -999 27 5.6
2010-10-12 07:13:16 51°13.662 2°55.961 125.7 0.1 112 7.6
2010-10-12 07:13:21 51°13.662 2°55.961 125.9 -999 4 7.8
2010-10-12 07:13:26 51°13.662 2°55.961 126 0.1 320 7.6
2010-10-12 07:13:31 51°13.662 2°55.961 125.8 -999 275 7.6
2010-10-12 07:13:36 51°13.662 2°55.961 125.7 -999 43 7.9
2010-10-12 07:13:41 51°13.662 2°55.961 125.4 -999 161 7.6
2010-10-12 07:13:46 51°13.662 2°55.961 125.1 -999 142 7.7
2010-10-12 07:13:51 51°13.662 2°55.961 124.9 -999 256 5.6
2010-10-12 07:13:56 51°13.662 2°55.96 124.9 -999 311 7.6
2010-10-12 07:14:00 51°13.662 2°55.96 124.8 -999 306 7.6
2010-10-12 07:14:05 51°13.662 2°55.961 124.7 -999 102 7.6
2010-10-12 07:14:10 51°13.662 2°55.961 124.5 -999 181 7.5
2010-10-12 07:14:16 51°13.662 2°55.96 124.2 0.1 325 7.6
2010-10-12 07:14:20 51°13.662 2°55.961 124.1 -999 3 7.5
2010-10-12 07:14:25 51°13.662 2°55.961 124.1 0.1 139 7.6
2010-10-12 07:14:30 51°13.662 2°55.961 124.1 -999 90 7.6
2010-10-12 07:14:35 51°13.662 2°55.961 124.1 0.1 133 7.6
2010-10-12 07:14:40 51°13.662 2°55.961 124.1 0.1 135 7.6
2010-10-12 07:14:45 51°13.662 2°55.961 124.1 0.1 120 7.6
2010-10-12 07:14:49 51°13.662 2°55.961 124.1 0.1 135 7.5
2010-10-12 07:14:55 51°13.662 2°55.961 124.1 -999 146 7.5
2010-10-12 07:15:00 51°13.662 2°55.961 124.1 -999 298 7.6
2010-10-12 07:15:05 51°13.662 2°55.961 124.1 -999 337 7.6
2010-10-12 07:15:09 51°13.662 2°55.961 124.2 -999 125 7.5
2010-10-12 07:15:15 51°13.662 2°55.961 124.2 -999 133 7.6
2010-10-12 07:15:20 51°13.662 2°55.96 124.2 -999 322 7.6
2010-10-12 07:15:25 51°13.662 2°55.96 124.3 0.1 289 7.5
2010-10-12 07:15:30 51°13.662 2°55.96 124.4 0.1 321 7.5
2010-10-12 07:15:35 51°13.662 2°55.96 124.4 0.1 331 7.5
2010-10-12 07:15:40 51°13.663 2°55.96 124.4 0.1 313 7.5
2010-10-12 07:15:44 51°13.662 2°55.96 124.4 0.1 320 7.5
2010-10-12 07:15:50 51°13.662 2°55.96 124.4 -999 315 7.6
2010-10-12 07:15:55 51°13.662 2°55.96 124.4 0.1 314 5.6
2010-10-12 07:16:00 51°13.662 2°55.96 124.4 -999 333 7.6
2010-10-12 07:16:04 51°13.663 2°55.96 124.4 -999 318 7.6
2010-10-12 07:16:09 51°13.662 2°55.96 124.4 -999 82 7.6
2010-10-12 07:16:15 51°13.663 2°55.96 124.4 0.1 323 7.5
2010-10-12 07:16:20 51°13.662 2°55.96 124.4 -999 191 7.6
2010-10-12 07:16:25 51°13.663 2°55.961 124.4 -999 129 7.6
2010-10-12 07:16:29 51°13.662 2°55.961 124.4 -999 158 7.6
2010-10-12 07:16:35 51°13.662 2°55.961 124.4 -999 127 7.6
2010-10-12 07:16:40 51°13.662 2°55.961 124.4 -999 195 7.6
2010-10-12 07:16:44 51°13.663 2°55.961 124.4 -999 31 7.7
2010-10-12 07:16:50 51°13.662 2°55.961 124.4 -999 140 7.6
2010-10-12 07:16:55 51°13.662 2°55.961 124.4 -999 70 7.5
2010-10-12 07:17:00 51°13.662 2°55.961 124.5 -999 160 7.6
2010-10-12 07:17:04 51°13.663 2°55.961 124.5 -999 345 7.6
2010-10-12 07:17:10 51°13.662 2°55.961 124.5 0.1 137 7.6
2010-10-12 07:17:15 51°13.662 2°55.961 124.7 0.1 127 7.5
2010-10-12 07:17:20 51°13.663 2°55.961 124.7 -999 254 7.5
2010-10-12 07:17:24 51°13.663 2°55.961 124.9 -999 125 7.6
2010-10-12 07:17:30 51°13.663 2°55.961 124.9 -999 149 7.6
2010-10-12 07:17:35 51°13.663 2°55.961 125.1 -999 147 7.5
2010-10-12 07:17:40 51°13.663 2°55.961 125.1 -999 40 7.6
2010-10-12 07:17:44 51°13.663 2°55.961 125.1 0.1 317 7.5
2010-10-12 07:17:50 51°13.663 2°55.961 124.9 0.1 329 7.5
2010-10-12 07:17:55 51°13.663 2°55.96 124.6 0.1 326 7.5
2010-10-12 07:18:00 51°13.663 2°55.961 124.2 -999 276 7.6
2010-10-12 07:18:04 51°13.663 2°55.961 123.8 0.1 108 7.5
2010-10-12 07:18:10 51°13.663 2°55.961 123.6 -999 177 7.5
2010-10-12 07:18:15 51°13.663 2°55.961 123.6 -999 32 7.5
2010-10-12 07:18:20 51°13.663 2°55.961 123.7 0.1 142 7.5
2010-10-12 07:18:24 51°13.663 2°55.961 123.9 -999 355 7.5
2010-10-12 07:18:29 51°13.663 2°55.961 124.2 -999 277 7.5
2010-10-12 07:18:35 51°13.663 2°55.961 124.4 -999 330 7.5
2010-10-12 07:18:40 51°13.663 2°55.961 124.6 0.1 295 7.5
2010-10-12 07:18:44 51°13.663 2°55.961 124.8 -999 30 7.5
2010-10-12 07:18:50 51°13.663 2°55.961 124.9 -999 303 7.6
2010-10-12 07:18:55 51°13.663 2°55.96 124.9 -999 303 7.5
2010-10-12 07:19:00 51°13.663 2°55.96 124.9 0.1 318 -999
2010-10-12 07:19:04 51°13.663 2°55.96 124.7 -999 350 7.5
2010-10-12 07:19:10 51°13.663 2°55.96 124.5 -999 17 7.5
2010-10-12 07:19:15 51°13.663 2°55.96 124.2 0.1 329 7.5
2010-10-12 07:19:20 51°13.663 2°55.96 124 0.1 311 7.5
2010-10-12 07:19:24 51°13.663 2°55.96 123.9 -999 336 7.5
2010-10-12 07:19:30 51°13.663 2°55.96 123.9 -999 270 7.5
2010-10-12 07:19:35 51°13.662 2°55.96 123.9 -999 153 7.5
2010-10-12 07:19:40 51°13.662 2°55.961 123.9 -999 123 7.5
2010-10-12 07:19:45 51°13.662 2°55.961 123.9 -999 104 5.6
2010-10-12 07:19:50 51°13.662 2°55.96 123.9 -999 192 7.5
2010-10-12 07:19:55 51°13.662 2°55.961 123.9 -999 123 7.5
2010-10-12 07:20:00 51°13.662 2°55.961 124.1 0.1 155 5.6
2010-10-12 07:20:04 51°13.662 2°55.961 124.2 0.1 132 7.5
2010-10-12 07:20:10 51°13.662 2°55.961 124.5 0.1 145 7.5
2010-10-12 07:20:15 51°13.662 2°55.961 124.9 -999 122 7.5
2010-10-12 07:20:20 51°13.662 2°55.961 124.9 -999 138 7.5
2010-10-12 07:20:24 51°13.662 2°55.961 125 0.1 127 7.5
2010-10-12 07:20:30 51°13.662 2°55.961 125.1 -999 111 7.5
2010-10-12 07:20:35 51°13.662 2°55.961 125.1 -999 61 7.5
2010-10-12 07:20:40 51°13.662 2°55.961 125.1 -999 324 7.5
2010-10-12 07:20:45 51°13.662 2°55.961 124.9 -999 303 7.5
2010-10-12 07:20:49 51°13.662 2°55.961 124.7 -999 138 7.5
2010-10-12 07:20:55 51°13.662 2°55.961 124.6 -999 142 7.5
2010-10-12 07:21:00 51°13.662 2°55.96 124.5 -999 209 7.5
2010-10-12 07:21:05 51°13.662 2°55.96 124.4 -999 182 7.5
2010-10-12 07:21:09 51°13.662 2°55.96 124.4 -999 18 7.5
2010-10-12 07:21:15 51°13.662 2°55.96 124.2 -999 320 7.5
2010-10-12 07:21:20 51°13.662 2°55.96 124.2 -999 320 7.4
2010-10-12 07:21:25 51°13.662 2°55.96 124.2 -999 316 7.5
2010-10-12 07:21:29 51°13.662 2°55.96 124.2 -999 319 7.5
2010-10-12 07:21:35 51°13.662 2°55.961 124.2 -999 131 7.4
2010-10-12 07:21:40 51°13.662 2°55.961 124.2 -999 125 -999
2010-10-12 07:21:45 51°13.662 2°55.96 124.4 -999 247 7.5
2010-10-12 07:21:50 51°13.662 2°55.96 124.7 -999 336 7.5
2010-10-12 07:21:55 51°13.662 2°55.961 125.1 -999 152 7.5
2010-10-12 07:22:00 51°13.662 2°55.961 125.5 -999 148 7.5
2010-10-12 07:22:05 51°13.662 2°55.961 126 0.1 355 7.5
2010-10-12 07:22:10 51°13.662 2°55.96 126.2 0.1 323 7.5
2010-10-12 07:22:15 51°13.662 2°55.961 126.3 -999 187 7.5
2010-10-12 07:22:20 51°13.662 2°55.96 126.3 -999 286 7.4
2010-10-12 07:22:24 51°13.662 2°55.96 126.2 0.1 314 7.4
2010-10-12 07:22:30 51°13.662 2°55.961 126.1 0.1 143 7.4
2010-10-12 07:22:35 51°13.662 2°55.961 126 -999 151 7.5
2010-10-12 07:22:40 51°13.662 2°55.961 126 -999 105 7.5
2010-10-12 07:22:44 51°13.662 2°55.96 126 -999 72 7.5
2010-10-12 07:22:50 51°13.662 2°55.96 126 0.1 316 7.4
2010-10-12 07:22:55 51°13.662 2°55.96 126 0.1 332 7.4
2010-10-12 07:23:00 51°13.662 2°55.96 126 -999 332 7.4
2010-10-12 07:23:04 51°13.662 2°55.961 126 0.1 151 7.4
2010-10-12 07:23:09 51°13.662 2°55.96 126.1 -999 142 5.6
2010-10-12 07:23:15 51°13.662 2°55.96 126.2 -999 338 5.5
2010-10-12 07:23:20 51°13.662 2°55.96 126.2 -999 118 5.5
2010-10-12 07:23:24 51°13.662 2°55.96 126.2 -999 161 -999
2010-10-12 07:23:29 51°13.662 2°55.96 126.2 0.1 321 7.5
2010-10-12 07:23:35 51°13.662 2°55.96 126.2 0.1 318 7.5
2010-10-12 07:23:40 51°13.662 2°55.96 126.2 -999 72 7.5
2010-10-12 07:23:44 51°13.662 2°55.96 126.2 -999 146 7.4
2010-10-12 07:23:49 51°13.662 2°55.961 126.2 0.1 145 7.4
2010-10-12 07:23:55 51°13.662 2°55.96 126.2 -999 135 7.5
2010-10-12 07:24:00 51°13.662 2°55.96 126.2 -999 284 7.4
2010-10-12 07:24:04 51°13.662 2°55.96 126.2 -999 345 7.4
2010-10-12 07:24:10 51°13.662 2°55.96 126.2 -999 251 7.5
2010-10-12 07:24:15 51°13.662 2°55.96 126.2 -999 28 7.4
2010-10-12 07:24:20 51°13.662 2°55.96 126.2 -999 326 7.5
2010-10-12 07:24:24 51°13.662 2°55.96 126.2 -999 140 7.4
2010-10-12 07:24:30 51°13.662 2°55.96 126.2 -999 106 7.5
2010-10-12 07:24:35 51°13.662 2°55.96 126.2 -999 337 7.5
2010-10-12 07:24:40 51°13.662 2°55.96 126.2 -999 237 7.4
2010-10-12 07:24:44 51°13.662 2°55.96 126.2 -999 123 7.4
2010-10-12 07:24:50 51°13.662 2°55.959 126.2 -999 195 7.5
2010-10-12 07:24:55 51°13.662 2°55.959 126.2 -999 313 7.4
2010-10-12 07:25:00 51°13.662 2°55.959 126.2 -999 142 7.4
2010-10-12 07:25:04 51°13.662 2°55.959 126.2 -999 272 7.4
2010-10-12 07:25:10 51°13.662 2°55.959 126.2 -999 337 7.4
2010-10-12 07:25:15 51°13.662 2°55.959 126.2 -999 58 7.4
2010-10-12 07:25:20 51°13.662 2°55.959 126.2 0.1 154 7.4
2010-10-12 07:25:25 51°13.662 2°55.959 126.2 -999 115 7.4
2010-10-12 07:25:29 51°13.662 2°55.959 126.2 -999 336 7.4
2010-10-12 07:25:35 51°13.662 2°55.959 126.2 -999 168 7.4
2010-10-12 07:25:40 51°13.662 2°55.959 126.2 -999 195 7.4
2010-10-12 07:25:45 51°13.662 2°55.959 126.2 -999 1 7.4
2010-10-12 07:25:49 51°13.662 2°55.959 126.3 -999 288 7.4
2010-10-12 07:25:55 51°13.662 2°55.959 126.2 -999 275 7.4
2010-10-12 07:26:00 51°13.662 2°55.959 126.2 -999 88 7.4
2010-10-12 07:26:05 51°13.662 2°55.959 126.2 -999 120 5.5
2010-10-12 07:26:10 51°13.662 2°55.959 126.2 -999 118 7.3
2010-10-12 07:26:15 51°13.662 2°55.959 126.2 0.1 137 7.4
2010-10-12 07:26:20 51°13.662 2°55.959 126.2 0.1 146 7.4
2010-10-12 07:26:25 51°13.662 2°55.959 126.3 -999 252 -999
2010-10-12 07:26:30 51°13.662 2°55.959 126.6 0.1 268 7.4
2010-10-12 07:26:35 51°13.662 2°55.959 127.2 0.1 207 7.4
2010-10-12 07:26:40 51°13.662 2°55.959 127.6 -999 260 7.5
2010-10-12 07:26:45 51°13.662 2°55.959 127.9 -999 229 7.7
2010-10-12 07:26:50 51°13.662 2°55.959 128.1 0.1 292 7.4
2010-10-12 07:26:55 51°13.662 2°55.96 128.3 -999 53 7.4
2010-10-12 07:27:00 51°13.662 2°55.96 128.5 0.1 65 7.4
2010-10-12 07:27:04 51°13.662 2°55.96 128.5 0.1 76 7.4
2010-10-12 07:27:10 51°13.662 2°55.961 127.8 0.1 78 7.4
2010-10-12 07:27:15 51°13.662 2°55.961 126.4 0.1 69 7.3
2010-10-12 07:27:20 51°13.662 2°55.961 124.7 0.1 175 7.4
2010-10-12 07:27:24 51°13.662 2°55.961 123.1 0.1 31 7.4
2010-10-12 07:27:29 51°13.662 2°55.961 122.2 0.1 184 7.4
2010-10-12 07:27:35 51°13.662 2°55.961 121.4 0.1 161 7.4
2010-10-12 07:27:40 51°13.662 2°55.961 120.6 0.1 189 7.4
2010-10-12 07:27:44 51°13.662 2°55.961 119.5 -999 250 7.4
2010-10-12 07:27:49 51°13.662 2°55.961 118.7 0.1 264 7.4
2010-10-12 07:27:55 51°13.662 2°55.96 117.8 0.1 267 7.4
2010-10-12 07:28:00 51°13.662 2°55.96 117 0.1 296 7.4
2010-10-12 07:28:05 51°13.662 2°55.96 116.2 0.1 298 7.4
2010-10-12 07:28:09 51°13.662 2°55.96 115.3 0.1 224 7.4
2010-10-12 07:28:15 51°13.661 2°55.96 114.4 0.1 221 7.4
2010-10-12 07:28:20 51°13.661 2°55.96 113.5 0.1 195 7.4
2010-10-12 07:28:25 51°13.661 2°55.96 112.6 0.1 203 7.4
2010-10-12 07:28:30 51°13.661 2°55.96 111.9 0.1 219 7.4
2010-10-12 07:28:35 51°13.661 2°55.96 111 0.1 255 7.3
2010-10-12 07:28:40 51°13.661 2°55.96 110.2 0.1 311 7.3
2010-10-12 07:28:45 51°13.661 2°55.959 109.6 0.2 277 7.4
2010-10-12 07:28:50 51°13.661 2°55.958 109.1 0.5 288 7.4
2010-10-12 07:28:55 51°13.662 2°55.956 108.9 0.9 288 7.5
2010-10-12 07:29:00 51°13.662 2°55.953 108.7 1.2 291 7.5
2010-10-12 07:29:04 51°13.663 2°55.95 108.4 1.5 290 7.3
2010-10-12 07:29:10 51°13.664 2°55.946 108.3 1.8 291 7.1
2010-10-12 07:29:15 51°13.665 2°55.942 108.3 2.1 289 -999
2010-10-12 07:29:21 51°13.666 2°55.936 108.4 2.3 292 -999
2010-10-12 07:29:27 51°13.668 2°55.929 108.7 2.6 291 -999
2010-10-12 07:29:32 51°13.669 2°55.924 108.8 2.8 291 -999
2010-10-12 07:29:38 51°13.671 2°55.916 108.8 3.1 291 -999
2010-10-12 07:29:43 51°13.672 2°55.909 108.8 3.2 291 -999
2010-10-12 07:29:48 51°13.674 2°55.902 108.7 3.3 291 -999
2010-10-12 07:29:53 51°13.676 2°55.895 108.3 3.5 291 -999
2010-10-12 07:29:59 51°13.678 2°55.886 107.7 3.6 290 -999
2010-10-12 07:30:04 51°13.68 2°55.878 107.1 3.7 290 -999
2010-10-12 07:30:08 51°13.681 2°55.872 106.1 3.7 288 -999
2010-10-12 07:30:13 51°13.683 2°55.864 105.1 3.7 288 -999
2010-10-12 07:30:18 51°13.684 2°55.857 103.9 3.7 286 -999
2010-10-12 07:30:24 51°13.686 2°55.847 102.6 3.7 286 -999
2010-10-12 07:30:28 51°13.687 2°55.841 101.7 3.6 284 -999
2010-10-12 07:30:33 51°13.688 2°55.833 100.7 3.6 284 -999
2010-10-12 07:30:38 51°13.689 2°55.826 99.8 3.5 282 -999
2010-10-12 07:30:43 51°13.69 2°55.818 98.9 3.5 282 -999
2010-10-12 07:30:48 51°13.691 2°55.81 98.1 3.6 281 -999
2010-10-12 07:30:53 51°13.691 2°55.803 97.3 3.6 280 -999
2010-10-12 07:30:58 51°13.692 2°55.795 96.4 3.5 278 -999
2010-10-12 07:31:03 51°13.692 2°55.788 95.5 3.4 278 -999
2010-10-12 07:31:08 51°13.693 2°55.78 94.8 3.2 280 -999
2010-10-12 07:31:13 51°13.694 2°55.775 94.4 2.6 280 -999
2010-10-12 07:31:18 51°13.694 2°55.771 93.2 1.8 277 -999
2010-10-12 07:31:23 51°13.695 2°55.769 90.4 1.1 285 -999
2010-10-12 07:31:28 51°13.695 2°55.768 87.5 0.5 289 12.7
2010-10-12 07:31:33 51°13.696 2°55.768 84 0.5 15 12.7
2010-10-12 07:31:38 51°13.696 2°55.77 79.9 0.7 54 12.8
2010-10-12 07:31:43 51°13.697 2°55.771 75.3 0.7 47 12.8
2010-10-12 07:31:48 51°13.697 2°55.771 68 0.5 44 12.9
2010-10-12 07:31:53 51°13.698 2°55.771 63.8 0.1 331 -999
2010-10-12 07:31:59 51°13.698 2°55.769 59.2 0.5 258 4.6
2010-10-12 07:32:03 51°13.698 2°55.767 56.4 0.9 243 12.8
2010-10-12 07:32:08 51°13.696 2°55.766 54.5 1.2 230 12.9
2010-10-12 07:32:13 51°13.695 2°55.762 53.3 1.5 237 12.8
2010-10-12 07:32:18 51°13.694 2°55.759 50.9 1.7 236 12.7
2010-10-12 07:32:23 51°13.692 2°55.756 49.2 1.7 235 12.7
2010-10-12 07:32:28 51°13.691 2°55.753 47.8 1.6 232 -999
2010-10-12 07:32:33 51°13.69 2°55.751 46.5 1.4 234 -999
2010-10-12 07:32:38 51°13.689 2°55.749 44.8 0.8 238 -999
2010-10-12 07:32:44 51°13.69 2°55.749 42 0.4 301 -999
2010-10-12 07:32:48 51°13.691 2°55.749 37.3 0.7 3 -999
2010-10-12 07:32:53 51°13.693 2°55.749 32.3 1.3 10 -999
2010-10-12 07:32:58 51°13.695 2°55.75 23.5 1.8 8 -999
2010-10-12 07:33:03 51°13.698 2°55.75 15.7 2.3 2 -999
2010-10-12 07:33:08 51°13.702 2°55.75 7.8 2.6 357 -999
2010-10-12 07:33:13 51°13.706 2°55.749 0.3 3.1 351 -999
2010-10-12 07:33:18 51°13.711 2°55.746 353.9 3.5 343 4.7
2010-10-12 07:33:23 51°13.716 2°55.743 347.2 3.8 337 12.6
2010-10-12 07:33:28 51°13.721 2°55.739 341.1 4 333 12.4
2010-10-12 07:33:33 51°13.726 2°55.733 334 4.4 327 11.9
2010-10-12 07:33:38 51°13.732 2°55.727 328.5 4.8 325 11.7
2010-10-12 07:33:43 51°13.738 2°55.72 325.9 5.1 325 11.3
2010-10-12 07:33:48 51°13.744 2°55.713 325.2 5.4 324 11.6
2010-10-12 07:33:52 51°13.749 2°55.708 325.8 5.5 326 11.3
2010-10-12 07:33:57 51°13.756 2°55.7 326.7 5.8 326 10.8
2010-10-12 07:34:02 51°13.763 2°55.693 327.2 6.1 327 10.3
2010-10-12 07:34:07 51°13.77 2°55.686 328 6.3 327 10.6
2010-10-12 07:34:12 51°13.778 2°55.678 328.6 6.5 327 11
2010-10-12 07:34:17 51°13.786 2°55.671 329.6 6.6 329 11.3
2010-10-12 07:34:22 51°13.793 2°55.664 330.2 6.7 330 11.2
2010-10-12 07:34:27 51°13.802 2°55.657 330.9 6.8 332 11
2010-10-12 07:34:32 51°13.81 2°55.65 332 7 332 11.3
2010-10-12 07:34:37 51°13.819 2°55.643 333 7.1 334 11.2
2010-10-12 07:34:41 51°13.827 2°55.637 333.4 7.3 333 11.1
2010-10-12 07:34:47 51°13.838 2°55.628 333.5 7.5 334 11.2
2010-10-12 07:34:51 51°13.846 2°55.622 333.8 7.7 334 10.9
2010-10-12 07:34:56 51°13.856 2°55.615 334 7.9 334 10.8
2010-10-12 07:35:01 51°13.866 2°55.607 334.5 8.1 334 10.2
2010-10-12 07:35:06 51°13.876 2°55.599 334.8 8.2 335 10.2
2010-10-12 07:35:11 51°13.887 2°55.591 334.9 8.4 334 10.8
2010-10-12 07:35:16 51°13.897 2°55.583 334.4 8.5 334 10.6
2010-10-12 07:35:20 51°13.906 2°55.576 334.8 8.6 335 9.9
2010-10-12 07:35:26 51°13.919 2°55.566 335.2 8.8 335 10.2
2010-10-12 07:35:31 51°13.93 2°55.557 334.8 8.9 334 10.5
2010-10-12 07:35:36 51°13.941 2°55.549 335 8.9 335 10.3
2010-10-12 07:35:40 51°13.95 2°55.543 335.7 9 336 10.4
2010-10-12 07:35:45 51°13.962 2°55.534 335.7 9 335 10.6
2010-10-12 07:35:50 51°13.973 2°55.526 335.4 9.1 335 10.6
2010-10-12 07:35:55 51°13.985 2°55.517 335.9 9.1 335 10.6
2010-10-12 07:36:00 51°13.996 2°55.508 335.9 9.3 335 9.9
2010-10-12 07:36:05 51°14.008 2°55.5 335.4 9.3 335 10.1
2010-10-12 07:36:10 51°14.02 2°55.491 335.4 9.5 335 9.6
2010-10-12 07:36:15 51°14.032 2°55.482 335.9 9.6 335 9.4
2010-10-12 07:36:20 51°14.044 2°55.473 335.9 9.7 335 9.3
2010-10-12 07:36:24 51°14.054 2°55.466 335.9 9.7 335 9.3
2010-10-12 07:36:30 51°14.069 2°55.455 335.5 9.7 334 9.5
2010-10-12 07:36:35 51°14.081 2°55.446 335 9.8 333 9.4
2010-10-12 07:36:40 51°14.093 2°55.436 333.8 9.8 333 9.4
2010-10-12 07:36:44 51°14.103 2°55.428 333.3 9.8 332 9.4
2010-10-12 07:36:50 51°14.117 2°55.416 333.6 9.9 333 9.5
2010-10-12 07:36:55 51°14.129 2°55.406 333.5 9.9 332 9.5
2010-10-12 07:37:00 51°14.141 2°55.396 333.1 9.8 332 9.7
2010-10-12 07:37:05 51°14.153 2°55.386 332.9 9.8 332 9.7
2010-10-12 07:37:10 51°14.165 2°55.375 332.5 9.8 331 9.6
2010-10-12 07:37:15 51°14.177 2°55.364 331.8 9.8 330 9.7
2010-10-12 07:37:20 51°14.188 2°55.353 331.1 9.8 330 10
2010-10-12 07:37:25 51°14.2 2°55.343 331.1 9.8 331 9.7
2010-10-12 07:37:29 51°14.21 2°55.334 331.1 9.9 330 10
2010-10-12 07:37:35 51°14.224 2°55.32 330.4 9.9 329 10
2010-10-12 07:37:40 51°14.235 2°55.31 330.3 9.8 329 9.8
2010-10-12 07:37:44 51°14.244 2°55.3 329.5 9.9 328 -999
2010-10-12 07:37:50 51°14.258 2°55.286 329.1 9.9 328 9.3
2010-10-12 07:37:55 51°14.27 2°55.275 328.9 9.9 327 9.9
2010-10-12 07:38:00 51°14.281 2°55.263 328.9 9.9 328 9.7
2010-10-12 07:38:04 51°14.291 2°55.253 328.7 10 327 9.2
2010-10-12 07:38:10 51°14.305 2°55.239 328.9 10 328 9.2
2010-10-12 07:38:15 51°14.317 2°55.227 328.9 10.2 327 9.4
2010-10-12 07:38:20 51°14.329 2°55.215 328.7 10.2 327 9.3
2010-10-12 07:38:24 51°14.338 2°55.205 328.3 10.2 326 9
2010-10-12 07:38:30 51°14.352 2°55.19 327.7 10.1 326 9.7
2010-10-12 07:38:35 51°14.363 2°55.178 327.4 10.1 326 9.2
2010-10-12 07:38:40 51°14.375 2°55.165 327.2 10.2 327 9.3
2010-10-12 07:38:44 51°14.385 2°55.155 327.5 10.2 326 9.3
2010-10-12 07:38:50 51°14.399 2°55.14 327.5 10.3 326 9.1
2010-10-12 07:38:55 51°14.41 2°55.126 326 10.2 324 9.3
2010-10-12 07:39:00 51°14.421 2°55.113 325.1 10.2 324 9.7
2010-10-12 07:39:04 51°14.431 2°55.102 325 10.3 324 9.5
2010-10-12 07:39:10 51°14.445 2°55.086 325.5 10.3 324 9.6
2010-10-12 07:39:15 51°14.456 2°55.073 325.9 10.4 324 9.5
2010-10-12 07:39:20 51°14.468 2°55.059 325.4 10.4 324 10.3
2010-10-12 07:39:24 51°14.478 2°55.048 325.9 10.5 324 10.1
2010-10-12 07:39:30 51°14.492 2°55.032 326.5 10.6 325 10.1
2010-10-12 07:39:35 51°14.504 2°55.018 326.7 10.6 325 10.2
2010-10-12 07:39:40 51°14.516 2°55.004 326.3 10.6 323 10.3
2010-10-12 07:39:44 51°14.525 2°54.991 325.6 10.8 319 10.7
2010-10-12 07:39:50 51°14.538 2°54.97 323.3 11.1 314 10.6
2010-10-12 07:39:55 51°14.548 2°54.951 320.6 11.2 312 10.6
2010-10-12 07:40:00 51°14.559 2°54.933 320.7 11.2 312 10.7
2010-10-12 07:40:05 51°14.568 2°54.913 319.1 11.3 307 10.6
2010-10-12 07:40:10 51°14.575 2°54.89 313.8 11.4 301 10.8
2010-10-12 07:40:15 51°14.582 2°54.866 306.7 11.8 294 10.9
2010-10-12 07:40:20 51°14.588 2°54.842 300.6 11.9 290 10.9
2010-10-12 07:40:24 51°14.592 2°54.821 295.5 12.1 289 10.5
2010-10-12 07:40:30 51°14.598 2°54.79 292.8 12.3 288 10.5
2010-10-12 07:40:35 51°14.603 2°54.763 293.7 12.5 288 10.5
2010-10-12 07:40:40 51°14.608 2°54.737 293.5 12.4 288 10.5
2010-10-12 07:40:44 51°14.612 2°54.716 291.6 12.5 283 10.6
2010-10-12 07:40:49 51°14.613 2°54.688 285.8 12.6 276 10.2
2010-10-12 07:40:55 51°14.614 2°54.655 278 12.5 270 9.3
2010-10-12 07:41:00 51°14.61 2°54.628 270.2 12.4 262 9.1
2010-10-12 07:41:04 51°14.606 2°54.607 262.1 12.4 255 9.3
2010-10-12 07:41:10 51°14.598 2°54.576 254.3 12.3 249 9.3
2010-10-12 07:41:15 51°14.59 2°54.552 246.6 12.6 242 9
2010-10-12 07:41:20 51°14.579 2°54.528 238.7 12.8 236 9.2
2010-10-12 07:41:24 51°14.57 2°54.511 232.4 13 231 9.2
2010-10-12 07:41:30 51°14.556 2°54.485 227.3 13.2 228 9.1
2010-10-12 07:41:35 51°14.543 2°54.463 224.2 13.5 227 9
2010-10-12 07:41:40 51°14.53 2°54.44 224.2 13.7 229 9.1
2010-10-12 07:41:44 51°14.52 2°54.423 224.7 13.6 225 8.7
2010-10-12 07:41:50 51°14.504 2°54.395 222.2 13.9 227 8.9
2010-10-12 07:41:55 51°14.491 2°54.372 225.8 13.9 230 8.9
2010-10-12 07:42:00 51°14.478 2°54.35 224.1 14 226 8.8
2010-10-12 07:42:05 51°14.465 2°54.327 223.3 14 229 8.9
2010-10-12 07:42:10 51°14.453 2°54.303 226.5 14 232 8.5
2010-10-12 07:42:15 51°14.44 2°54.278 227.3 14.3 231 9
2010-10-12 07:42:20 51°14.43 2°54.252 231.7 14.1 237 8.7
2010-10-12 07:42:24 51°14.418 2°54.235 229.4 14 226 8.6
2010-10-12 07:42:29 51°14.407 2°54.209 226.6 14.2 234 8.4
2010-10-12 07:42:35 51°14.392 2°54.18 229.5 14.1 232 8.6
2010-10-12 07:42:40 51°14.381 2°54.154 230.4 14.2 234 8.3
2010-10-12 07:42:44 51°14.372 2°54.133 232.1 14.3 236 8.3
2010-10-12 07:42:49 51°14.362 2°54.107 234.9 14 237 8.3
2010-10-12 07:42:55 51°14.347 2°54.077 232.9 14.2 233 8.3
2010-10-12 07:43:00 51°14.337 2°54.05 233 14.4 238 8.4
2010-10-12 07:43:04 51°14.328 2°54.029 235.7 14.2 237 8.2
2010-10-12 07:43:10 51°14.314 2°53.998 235 14.2 235 8.3
2010-10-12 07:43:15 51°14.305 2°53.97 236.7 14.2 240 8.2
2010-10-12 07:43:20 51°14.294 2°53.943 237.1 14.4 236 8.4
2010-10-12 07:43:24 51°14.286 2°53.921 237.9 14.5 242 8.3
2010-10-12 07:43:29 51°14.276 2°53.894 239.6 14.5 240 8.4
2010-10-12 07:43:35 51°14.265 2°53.86 240.5 14.2 242 8.2
2010-10-12 07:43:40 51°14.255 2°53.832 240.4 14.4 240 8.3
2010-10-12 07:43:45 51°14.247 2°53.803 242.1 14.5 245 8.5
2010-10-12 07:43:49 51°14.239 2°53.781 242.5 14.5 239 8.5
2010-10-12 07:43:55 51°14.228 2°53.746 241.2 14.5 245 8.2
2010-10-12 07:44:00 51°14.218 2°53.718 242.1 14.6 240 8.4
2010-10-12 07:44:05 51°14.21 2°53.689 242.6 14.5 246 8.4
2010-10-12 07:44:09 51°14.201 2°53.668 241.9 14.5 240 8.2
2010-10-12 07:44:15 51°14.19 2°53.633 241.3 14.6 243 8.6
2010-10-12 07:44:20 51°14.181 2°53.604 242.7 14.6 244 8.2
2010-10-12 07:44:25 51°14.171 2°53.577 241.1 14.6 240 8.6
2010-10-12 07:44:29 51°14.164 2°53.553 242 14.7 244 8.6
2010-10-12 07:44:35 51°14.153 2°53.519 242.9 14.5 243 8.5
2010-10-12 07:44:40 51°14.143 2°53.491 242.7 14.5 241 8.6
2010-10-12 07:44:44 51°14.137 2°53.467 243.1 14.6 246 8.5
2010-10-12 07:44:50 51°14.125 2°53.433 243.2 14.7 240 8.7
2010-10-12 07:44:55 51°14.117 2°53.403 242.3 14.6 246 8.4
2010-10-12 07:45:00 51°14.106 2°53.376 242.4 14.8 239 8.8
2010-10-12 07:45:04 51°14.1 2°53.351 242.9 14.7 246 8.7
2010-10-12 07:45:10 51°14.087 2°53.319 241.8 14.5 238 8.7
2010-10-12 07:45:15 51°14.078 2°53.289 240.2 14.7 244 8.7
2010-10-12 07:45:20 51°14.068 2°53.262 240.9 14.7 239 8.9
2010-10-12 07:45:24 51°14.06 2°53.238 240.1 14.7 242 8.6
2010-10-12 07:45:29 51°14.049 2°53.211 239.6 14.7 240 8.9
2010-10-12 07:45:35 51°14.038 2°53.177 240.3 14.7 240 8.7
2010-10-12 07:45:40 51°14.028 2°53.148 239.1 14.7 239 8.9
2010-10-12 07:45:45 51°14.018 2°53.12 240.5 14.7 240 8.9
2010-10-12 07:45:49 51°14.01 2°53.097 239.2 14.8 241 8.9
2010-10-12 07:45:55 51°13.998 2°53.063 240.2 14.8 240 8.9
2010-10-12 07:46:00 51°13.989 2°53.034 240.3 14.8 242 9
2010-10-12 07:46:05 51°13.978 2°53.007 241.1 14.6 240 9.1
2010-10-12 07:46:09 51°13.97 2°52.983 239.3 14.7 241 8.9
2010-10-12 07:46:15 51°13.958 2°52.95 239.6 14.7 240 9.1
2010-10-12 07:46:20 51°13.948 2°52.921 239.8 14.7 241 9
2010-10-12 07:46:25 51°13.938 2°52.893 239.1 14.9 240 9.1
2010-10-12 07:46:29 51°13.931 2°52.87 240.2 14.5 242 9
2010-10-12 07:46:35 51°13.918 2°52.837 238.5 14.7 239 9
2010-10-12 07:46:40 51°13.909 2°52.808 239.6 14.8 244 9.1
2010-10-12 07:46:44 51°13.901 2°52.786 240.4 14.5 239 9
2010-10-12 07:46:50 51°13.889 2°52.752 237.7 14.7 239 9.1
2010-10-12 07:46:55 51°13.879 2°52.724 239.2 14.6 242 9.2
2010-10-12 07:47:00 51°13.868 2°52.697 238.8 14.3 237 9.1
2010-10-12 07:47:04 51°13.86 2°52.675 236.7 14.5 240 9.1
2010-10-12 07:47:10 51°13.847 2°52.641 237.8 14.9 238 9.1
2010-10-12 07:47:15 51°13.838 2°52.612 238.3 14.7 242 9.2
2010-10-12 07:47:20 51°13.826 2°52.587 238.1 14.3 237 9.2
2010-10-12 07:47:24 51°13.818 2°52.564 235.3 14.6 239 9
2010-10-12 07:47:29 51°13.808 2°52.536 237.4 14.8 239 9
2010-10-12 07:47:35 51°13.795 2°52.501 236.9 15 240 9.4
2010-10-12 07:47:40 51°13.785 2°52.475 238.9 14.4 240 9.2
2010-10-12 07:47:44 51°13.775 2°52.455 235.1 14.3 234 9.3
2010-10-12 07:47:49 51°13.765 2°52.426 235.1 14.9 241 9.3
2010-10-12 07:47:55 51°13.752 2°52.393 236.1 14.9 237 9.2
2010-10-12 07:48:00 51°13.741 2°52.365 235.9 14.9 239 9.3
2010-10-12 07:48:04 51°13.733 2°52.342 237.1 14.6 240 9.1
2010-10-12 07:48:09 51°13.722 2°52.315 236.7 14.6 236 9.2
2010-10-12 07:48:15 51°13.71 2°52.28 236.4 15 241 9.3
2010-10-12 07:48:20 51°13.699 2°52.253 238.4 14.8 239 9.3
2010-10-12 07:48:24 51°13.69 2°52.23 237.5 14.7 238 9.4
2010-10-12 07:48:29 51°13.681 2°52.202 237.8 14.6 241 9.1
2010-10-12 07:48:35 51°13.667 2°52.169 237.4 14.9 237 9.3
2010-10-12 07:48:40 51°13.658 2°52.139 238.4 14.9 243 9.3
2010-10-12 07:48:44 51°13.649 2°52.119 238.8 14.6 236 9.4
2010-10-12 07:48:50 51°13.636 2°52.085 234.8 14.8 238 9.3
2010-10-12 07:48:55 51°13.625 2°52.057 238 14.7 239 9.4
2010-10-12 07:49:00 51°13.614 2°52.03 236.7 14.8 236 9.4
2010-10-12 07:49:04 51°13.605 2°52.007 235.4 15 239 9.5
2010-10-12 07:49:10 51°13.593 2°51.974 237.4 14.8 240 9.3
2010-10-12 07:49:15 51°13.582 2°51.946 237.3 14.9 237 9.5
2010-10-12 07:49:20 51°13.572 2°51.917 237.7 14.9 242 9.4
2010-10-12 07:49:24 51°13.563 2°51.895 238.5 14.7 237 9.3
2010-10-12 07:49:30 51°13.551 2°51.861 237.4 14.9 241 9.3
2010-10-12 07:49:35 51°13.541 2°51.833 239.7 14.9 240 9.4
2010-10-12 07:49:40 51°13.53 2°51.804 238.2 14.9 240 9.4
2010-10-12 07:49:44 51°13.522 2°51.782 238.9 14.7 240 9.4
2010-10-12 07:49:49 51°13.512 2°51.754 238.2 14.9 239 9.5
2010-10-12 07:49:55 51°13.5 2°51.719 238.9 14.9 242 9.4
2010-10-12 07:50:00 51°13.489 2°51.691 238.9 14.9 239 9.4
2010-10-12 07:50:04 51°13.482 2°51.668 238.8 14.9 241 9.6
2010-10-12 07:50:09 51°13.472 2°51.639 240.1 14.7 241 9.6
2010-10-12 07:50:15 51°13.459 2°51.605 238.1 15 239 9.8
2010-10-12 07:50:20 51°13.45 2°51.576 239.5 14.9 243 9.5
2010-10-12 07:50:24 51°13.44 2°51.554 237.6 15 237 9.8
2010-10-12 07:50:29 51°13.431 2°51.524 237.5 15 242 9.8
2010-10-12 07:50:35 51°13.419 2°51.491 238.6 14.7 240 9.4
2010-10-12 07:50:40 51°13.407 2°51.463 237.3 14.8 237 9.8
2010-10-12 07:50:44 51°13.4 2°51.439 239.4 15.1 243 9.7
2010-10-12 07:50:50 51°13.388 2°51.406 239.4 14.8 239 9.3
2010-10-12 07:50:55 51°13.378 2°51.377 238.9 14.8 241 9.7
2010-10-12 07:51:00 51°13.369 2°51.348 240.3 14.7 244 9.5
2010-10-12 07:51:04 51°13.359 2°51.327 238.2 14.7 235 9.8
2010-10-12 07:51:10 51°13.347 2°51.293 236.1 14.7 241 9.8
2010-10-12 07:51:15 51°13.335 2°51.267 236.8 14.4 235 9.5
2010-10-12 07:51:20 51°13.326 2°51.238 234.9 14.8 241 9.7
2010-10-12 07:51:25 51°13.315 2°51.211 239.5 14.6 239 9.8
2010-10-12 07:51:30 51°13.305 2°51.184 237.1 14.5 238 9.6
2010-10-12 07:51:35 51°13.294 2°51.157 234.6 14.5 237 9.7
2010-10-12 07:51:40 51°13.284 2°51.129 237.7 14.6 241 9.8
2010-10-12 07:51:44 51°13.275 2°51.106 237.4 14.7 239 9.6
2010-10-12 07:51:50 51°13.263 2°51.073 237.9 14.6 240 9.8
2010-10-12 07:51:55 51°13.254 2°51.045 238.4 14.6 243 9.7
2010-10-12 07:52:00 51°13.244 2°51.018 239.2 14.3 241 9.7
2010-10-12 07:52:04 51°13.236 2°50.994 238.2 14.7 240 9.8
2010-10-12 07:52:09 51°13.226 2°50.965 239.3 14.8 243 9.7
2010-10-12 07:52:15 51°13.213 2°50.932 239.6 14.5 239 9.8
2010-10-12 07:52:20 51°13.205 2°50.905 238.8 14.2 242 9.8
2010-10-12 07:52:24 51°13.196 2°50.883 239 14.3 239 9.7
2010-10-12 07:52:30 51°13.185 2°50.849 238.4 14.7 241 9.8
2010-10-12 07:52:35 51°13.176 2°50.82 239.9 14.7 242 9.9
2010-10-12 07:52:40 51°13.167 2°50.793 240.4 14.2 241 9.9
2010-10-12 07:52:44 51°13.158 2°50.771 239 14 239 9.8
2010-10-12 07:52:50 51°13.147 2°50.738 238.3 14.4 242 9.8
2010-10-12 07:52:55 51°13.136 2°50.71 238.8 14.4 239 9.9
2010-10-12 07:53:00 51°13.126 2°50.681 238.2 14.8 241 9.9
2010-10-12 07:53:04 51°13.118 2°50.658 239.6 14.9 241 10.1
2010-10-12 07:53:10 51°13.106 2°50.626 240.2 14.3 241 9.8
2010-10-12 07:53:15 51°13.095 2°50.598 237.3 14.6 238 9.9
2010-10-12 07:53:20 51°13.086 2°50.568 238.8 14.9 244 10
2010-10-12 07:53:25 51°13.075 2°50.543 238.7 14.5 236 10.1
2010-10-12 07:53:30 51°13.065 2°50.514 235.8 14.7 241 9.8
2010-10-12 07:53:35 51°13.055 2°50.485 238.2 14.9 241 10.1
2010-10-12 07:53:40 51°13.045 2°50.457 239.3 14.6 241 10.2
2010-10-12 07:53:44 51°13.037 2°50.435 238.8 14.4 240 9.9
2010-10-12 07:53:50 51°13.025 2°50.401 238 14.7 240 10.1
2010-10-12 07:53:55 51°13.016 2°50.372 239.8 14.8 243 10.1
2010-10-12 07:54:00 51°13.005 2°50.344 239.9 14.4 240 9.9
2010-10-12 07:54:04 51°12.997 2°50.322 238.7 14.6 240 10.3
2010-10-12 07:54:10 51°12.986 2°50.287 239.7 14.7 243 9.8
2010-10-12 07:54:15 51°12.975 2°50.26 238.4 14.6 239 10.1
2010-10-12 07:54:20 51°12.965 2°50.232 239 14.6 242 10
2010-10-12 07:54:24 51°12.957 2°50.21 238.1 14.5 238 10.2
2010-10-12 07:54:30 51°12.945 2°50.177 238.4 14.4 240 9.9
2010-10-12 07:54:35 51°12.935 2°50.148 237.4 14.9 242 10.2
2010-10-12 07:54:40 51°12.926 2°50.12 240.3 14.3 244 10.1
2010-10-12 07:54:44 51°12.915 2°50.1 236 14.4 234 10.1
2010-10-12 07:54:50 51°12.904 2°50.066 235.1 14.6 241 10.2
2010-10-12 07:54:55 51°12.893 2°50.038 238.1 14.6 238 10
2010-10-12 07:55:00 51°12.883 2°50.01 235.9 14.9 239 10
2010-10-12 07:55:04 51°12.876 2°49.988 239 14.5 242 10.2
2010-10-12 07:55:10 51°12.863 2°49.955 238.3 14.4 238 10
2010-10-12 07:55:15 51°12.853 2°49.926 237.4 14.9 241 10.1
2010-10-12 07:55:20 51°12.843 2°49.897 239.6 14.8 242 10.1
2010-10-12 07:55:25 51°12.833 2°49.87 238.9 14.6 239 10.1
2010-10-12 07:55:29 51°12.825 2°49.846 238.6 14.8 243 10.2
2010-10-12 07:55:35 51°12.813 2°49.812 240.1 14.7 240 10.1
2010-10-12 07:55:40 51°12.803 2°49.784 239.5 14.7 240 10.3
2010-10-12 07:55:45 51°12.794 2°49.755 239.8 14.5 243 10.1
2010-10-12 07:55:49 51°12.785 2°49.734 239 14.5 238 10.3
2010-10-12 07:55:55 51°12.774 2°49.698 238.2 14.8 244 10.2
2010-10-12 07:56:00 51°12.763 2°49.671 240.8 14.5 240 10.1
2010-10-12 07:56:04 51°12.755 2°49.65 236.7 14.7 236 10.3
2010-10-12 07:56:09 51°12.744 2°49.622 236.1 14.7 240 10.4
2010-10-12 07:56:15 51°12.732 2°49.589 239.1 14.4 237 10.1
2010-10-12 07:56:20 51°12.721 2°49.562 234.8 14.7 235 10.5
2010-10-12 07:56:24 51°12.714 2°49.539 237 14.4 241 10
2010-10-12 07:56:29 51°12.702 2°49.514 234.9 14.5 235 10.4
2010-10-12 07:56:35 51°12.69 2°49.48 235.5 14.4 241 10.2
2010-10-12 07:56:40 51°12.678 2°49.454 236.6 14.6 235 10.8
2010-10-12 07:56:44 51°12.672 2°49.43 238.2 14.4 244 10.2
2010-10-12 07:56:49 51°12.66 2°49.406 236.9 14.1 234 10.4
2010-10-12 07:56:55 51°12.649 2°49.372 235 14.3 242 10.3
2010-10-12 07:57:00 51°12.638 2°49.345 237.1 14.4 238 10.3
2010-10-12 07:57:04 51°12.63 2°49.322 237.8 14.6 241 10.4
2010-10-12 07:57:09 51°12.62 2°49.296 238.7 14.1 239 10.3
2010-10-12 07:57:15 51°12.608 2°49.262 237.4 14.5 240 10.5
2010-10-12 07:57:20 51°12.599 2°49.234 239.7 14.6 243 10.5
2010-10-12 07:57:25 51°12.589 2°49.206 238.6 14.5 239 10.2
2010-10-12 07:57:29 51°12.581 2°49.184 238.6 14.6 242 10.4
2010-10-12 07:57:35 51°12.57 2°49.149 239.3 14.6 242 10.5
2010-10-12 07:57:40 51°12.56 2°49.121 239.1 14.7 241 10.2
2010-10-12 07:57:45 51°12.549 2°49.092 239.3 14.9 241 10.7
2010-10-12 07:57:49 51°12.543 2°49.069 241.8 14.5 244 10.5
2010-10-12 07:57:55 51°12.528 2°49.037 237.6 14.6 236 10.5
2010-10-12 07:58:00 51°12.519 2°49.008 235.9 14.9 241 10.6
2010-10-12 07:58:04 51°12.51 2°48.986 239 14.5 239 10.6
2010-10-12 07:58:10 51°12.498 2°48.954 236.1 14.3 238 10.3
2010-10-12 07:58:15 51°12.487 2°48.926 236 14.5 239 10.5
2010-10-12 07:58:20 51°12.477 2°48.898 237.4 14.6 241 10.6
2010-10-12 07:58:24 51°12.47 2°48.876 238.9 14.4 240 10.5
2010-10-12 07:58:30 51°12.458 2°48.843 238.2 14.1 239 10.5
2010-10-12 07:58:35 51°12.447 2°48.816 237.4 14.6 238 10.5
2010-10-12 07:58:40 51°12.438 2°48.787 238.3 14.6 242 10.8
2010-10-12 07:58:44 51°12.429 2°48.767 238.7 14.1 237 10.5
2010-10-12 07:58:49 51°12.418 2°48.739 235.3 14.6 240 10.7
2010-10-12 07:58:55 51°12.407 2°48.706 239.4 14.4 241 10.5
2010-10-12 07:59:00 51°12.396 2°48.679 237 14.4 237 10.3
2010-10-12 07:59:05 51°12.385 2°48.653 235.9 14.2 238 10.4
2010-10-12 07:59:09 51°12.377 2°48.63 236.1 14.5 238 10.7
2010-10-12 07:59:15 51°12.365 2°48.597 237.1 14.5 242 10.4
2010-10-12 07:59:20 51°12.354 2°48.57 237.5 14.4 238 10.4
2010-10-12 07:59:25 51°12.345 2°48.541 237.5 14.7 243 10.2
2010-10-12 07:59:29 51°12.336 2°48.52 238.9 14.4 238 10.7
2010-10-12 07:59:35 51°12.325 2°48.486 238.4 14.4 243 10.4
2010-10-12 07:59:40 51°12.315 2°48.458 239 14.6 239 10.6
2010-10-12 07:59:44 51°12.308 2°48.434 240.5 14.7 246 10.5
2010-10-12 07:59:49 51°12.298 2°48.408 240.8 14.2 239 10.6
2010-10-12 07:59:55 51°12.287 2°48.373 239.1 14.5 242 10.5
2010-10-12 08:00:00 51°12.277 2°48.346 240.3 14.2 241 10.6
2010-10-12 08:00:04 51°12.268 2°48.324 237.6 14.7 238 10.7
2010-10-12 08:00:10 51°12.257 2°48.29 239.6 14.5 244 10.5
2010-10-12 08:00:15 51°12.246 2°48.264 238.1 14.4 236 10.7
2010-10-12 08:00:20 51°12.238 2°48.235 237.7 14.6 244 10.6
2010-10-12 08:00:24 51°12.229 2°48.213 240.9 14.2 239 10.6
2010-10-12 08:00:30 51°12.216 2°48.181 236.3 14.5 237 10.4
2010-10-12 08:00:35 51°12.206 2°48.154 235.1 14.5 238 10.6
2010-10-12 08:00:40 51°12.196 2°48.125 237.6 14.6 242 10.4
2010-10-12 08:00:44 51°12.187 2°48.104 237.9 14.5 238 10.6
2010-10-12 08:00:50 51°12.176 2°48.07 238.9 14.3 242 10.4
2010-10-12 08:00:55 51°12.165 2°48.042 237.9 14.6 238 10.7
2010-10-12 08:01:00 51°12.157 2°48.014 240.7 14.5 245 10.4
2010-10-12 08:01:04 51°12.148 2°47.993 239.1 14.4 237 10.5
2010-10-12 08:01:09 51°12.139 2°47.964 237.4 14.5 242 10.4
2010-10-12 08:01:15 51°12.126 2°47.932 238.4 14.4 238 10.3
2010-10-12 08:01:20 51°12.116 2°47.903 238.1 14.8 241 10.5
2010-10-12 08:01:24 51°12.108 2°47.881 239.5 14.4 240 10.4
2010-10-12 08:01:29 51°12.097 2°47.855 236.5 14.6 236 10.5
2010-10-12 08:01:35 51°12.086 2°47.82 237.2 14.8 242 10.6
2010-10-12 08:01:40 51°12.076 2°47.792 240.4 14.5 241 10.2
2010-10-12 08:01:44 51°12.067 2°47.77 237.4 14.8 238 10.6
2010-10-12 08:01:49 51°12.059 2°47.741 240.4 14.4 243 10.2
2010-10-12 08:01:55 51°12.046 2°47.709 237.3 14.3 238 10
2010-10-12 08:02:00 51°12.034 2°47.682 235.6 14.6 237 10.5
2010-10-12 08:02:04 51°12.028 2°47.658 239.1 14.6 244 10.2
2010-10-12 08:02:10 51°12.013 2°47.628 237.2 14.2 233 10.5
2010-10-12 08:02:15 51°12.004 2°47.599 233.1 14.6 240 10.3
2010-10-12 08:02:20 51°11.992 2°47.574 235.5 14.3 236 10.3
2010-10-12 08:02:24 51°11.985 2°47.551 236.2 14.6 242 10.2
2010-10-12 08:02:30 51°11.973 2°47.518 237.7 14.4 239 10.3
2010-10-12 08:02:35 51°11.963 2°47.49 238 14.5 240 10.6
2010-10-12 08:02:40 51°11.953 2°47.462 238.7 14.5 243 9.9
2010-10-12 08:02:44 51°11.945 2°47.439 239 14.7 239 10.4
2010-10-12 08:02:50 51°11.934 2°47.406 241.2 14.4 244 10.5
2010-10-12 08:02:55 51°11.924 2°47.378 238.4 14.5 238 10.4
2010-10-12 08:03:00 51°11.914 2°47.35 237.1 14.6 241 10.2
2010-10-12 08:03:04 51°11.906 2°47.327 238.9 14.5 240 10.3
2010-10-12 08:03:09 51°11.896 2°47.299 238.2 14.7 240 10
2010-10-12 08:03:15 51°11.885 2°47.266 239 14.5 241 10.1
2010-10-12 08:03:20 51°11.875 2°47.237 239.4 14.5 241 10.1
2010-10-12 08:03:24 51°11.868 2°47.214 240.8 14.5 244 10
2010-10-12 08:03:29 51°11.859 2°47.186 240.5 14.6 242 10.1
2010-10-12 08:03:35 51°11.847 2°47.153 241 14.4 242 9.9
2010-10-12 08:03:40 51°11.837 2°47.125 239.4 14.5 239 10.2
2010-10-12 08:03:44 51°11.831 2°47.101 239.8 14.6 245 9.9
2010-10-12 08:03:49 51°11.819 2°47.074 238.7 14.6 238 10.1
2010-10-12 08:03:55 51°11.809 2°47.039 239 14.7 245 10
2010-10-12 08:04:00 51°11.798 2°47.012 239.7 14.4 239 9.8
2010-10-12 08:04:04 51°11.791 2°46.989 238.2 14.6 242 9.9
2010-10-12 08:04:10 51°11.779 2°46.956 239.8 14.5 241 10
2010-10-12 08:04:15 51°11.769 2°46.927 238.3 14.7 241 10
2010-10-12 08:04:20 51°11.76 2°46.898 239.5 14.5 243 10
2010-10-12 08:04:24 51°11.752 2°46.876 239.6 14.4 240 10.1
2010-10-12 08:04:30 51°11.74 2°46.843 239.3 14.4 241 10
2010-10-12 08:04:35 51°11.731 2°46.814 239.6 14.7 242 9.7
2010-10-12 08:04:40 51°11.721 2°46.786 239.7 14.6 241 9.8
2010-10-12 08:04:45 51°11.712 2°46.758 239.6 14.4 240 10.3
2010-10-12 08:04:50 51°11.702 2°46.731 240.2 14.2 242 10
2010-10-12 08:04:55 51°11.691 2°46.704 236.1 14.6 236 10
2010-10-12 08:05:00 51°11.682 2°46.674 238 14.8 243 9.8
2010-10-12 08:05:04 51°11.673 2°46.654 238.3 14.2 237 9.9
2010-10-12 08:05:10 51°11.661 2°46.621 235.2 14.4 239 9.8
2010-10-12 08:05:15 51°11.651 2°46.592 237 14.7 242 9.9
2010-10-12 08:05:20 51°11.64 2°46.565 238.5 14.5 240 9.9
2010-10-12 08:05:24 51°11.632 2°46.543 237.4 14.5 240 9.9
2010-10-12 08:05:29 51°11.623 2°46.515 238.9 14.3 242 9.6
2010-10-12 08:05:35 51°11.61 2°46.481 237.4 14.8 240 9.7
2010-10-12 08:05:40 51°11.601 2°46.453 239.5 14.7 243 10.2
2010-10-12 08:05:44 51°11.593 2°46.431 238.8 14.4 238 9.9
2010-10-12 08:05:50 51°11.582 2°46.397 237.7 14.3 243 9.8
2010-10-12 08:05:55 51°11.571 2°46.37 238.5 14.7 237 9.9
2010-10-12 08:06:00 51°11.562 2°46.34 237.9 15 242 10
2010-10-12 08:06:04 51°11.555 2°46.318 241.7 14.1 244 9.6
2010-10-12 08:06:10 51°11.541 2°46.287 236.6 14.2 235 9.7
2010-10-12 08:06:15 51°11.531 2°46.259 234.3 14.6 239 9.6
2010-10-12 08:06:20 51°11.521 2°46.231 236.4 14.8 239 9.7
2010-10-12 08:06:24 51°11.513 2°46.209 238.3 14.4 241 9.8
2010-10-12 08:06:30 51°11.501 2°46.177 236.8 14.1 239 9.5
2010-10-12 08:06:35 51°11.491 2°46.149 237.2 14.4 241 9.7
2010-10-12 08:06:40 51°11.482 2°46.12 238.9 14.6 244 9.6
2010-10-12 08:06:45 51°11.471 2°46.094 239.2 14.2 238 9.4
2010-10-12 08:06:50 51°11.463 2°46.064 238.2 14.6 243 9.4
2010-10-12 08:06:55 51°11.452 2°46.037 239.5 14.5 239 9.4
2010-10-12 08:07:00 51°11.443 2°46.009 238.4 14.5 241 9.4
2010-10-12 08:07:05 51°11.433 2°45.981 239.1 14.3 241 9.2
2010-10-12 08:07:10 51°11.423 2°45.953 238.9 14.5 241 9.4
2010-10-12 08:07:15 51°11.414 2°45.924 239.3 14.5 243 9.5
2010-10-12 08:07:20 51°11.404 2°45.897 239.6 14.3 240 9.1
2010-10-12 08:07:24 51°11.396 2°45.875 238.3 14.5 242 9.4
2010-10-12 08:07:29 51°11.387 2°45.847 240.2 14.3 242 9.1
2010-10-12 08:07:35 51°11.375 2°45.813 237.3 14.6 240 9.1
2010-10-12 08:07:40 51°11.366 2°45.785 238.2 14.6 244 9.4
2010-10-12 08:07:44 51°11.358 2°45.763 239.9 14.3 240 9.3
2010-10-12 08:07:50 51°11.347 2°45.729 238.8 14.4 243 9.2
2010-10-12 08:07:55 51°11.337 2°45.7 239.8 14.5 242 9
2010-10-12 08:08:00 51°11.328 2°45.672 240.1 14.6 241 9.1
2010-10-12 08:08:04 51°11.32 2°45.65 240.2 14.3 242 9.2
2010-10-12 08:08:10 51°11.309 2°45.617 240.2 14.2 241 9.1
2010-10-12 08:08:15 51°11.3 2°45.588 239.2 14.5 243 9
2010-10-12 08:08:20 51°11.289 2°45.561 239.9 14.4 241 9.1
2010-10-12 08:08:24 51°11.282 2°45.538 238.8 14.4 242 8.9
2010-10-12 08:08:29 51°11.272 2°45.511 239.2 14.4 240 9.2
2010-10-12 08:08:35 51°11.262 2°45.476 239.8 14.5 244 8.9
2010-10-12 08:08:40 51°11.251 2°45.45 239.6 14.2 239 8.9
2010-10-12 08:08:45 51°11.243 2°45.42 238.2 14.6 243 8.7
2010-10-12 08:08:49 51°11.234 2°45.399 239.5 14.5 240 8.9
2010-10-12 08:08:55 51°11.223 2°45.364 239.4 14.5 244 8.9
2010-10-12 08:09:00 51°11.212 2°45.337 239.3 14.5 238 8.9
2010-10-12 08:09:05 51°11.203 2°45.309 238.9 14.4 243 8.8
2010-10-12 08:09:09 51°11.195 2°45.288 238.6 14.2 239 8.5
2010-10-12 08:09:15 51°11.184 2°45.253 237.6 14.7 243 8.6
2010-10-12 08:09:20 51°11.173 2°45.225 239.3 14.7 240 8.8
2010-10-12 08:09:25 51°11.164 2°45.196 238.7 14.7 241 8.5
2010-10-12 08:09:29 51°11.155 2°45.175 239 14.2 240 8.5
2010-10-12 08:09:35 51°11.144 2°45.142 237.7 14.4 241 8.6
2010-10-12 08:09:40 51°11.135 2°45.114 238.9 14.4 241 8.6
2010-10-12 08:09:44 51°11.126 2°45.092 238 14.7 238 8.6
2010-10-12 08:09:49 51°11.117 2°45.063 238.2 14.6 244 8.5
2010-10-12 08:09:55 51°11.103 2°45.033 238.9 14.2 235 8.6
2010-10-12 08:10:00 51°11.094 2°45.004 235.3 14.5 241 8.4
2010-10-12 08:10:04 51°11.086 2°44.983 238.1 14.2 239 8.4
2010-10-12 08:10:09 51°11.076 2°44.956 237.1 14.3 239 8.4
2010-10-12 08:10:15 51°11.063 2°44.923 236.7 14.4 238 8.4
2010-10-12 08:10:20 51°11.052 2°44.895 235.9 14.6 239 8.3
2010-10-12 08:10:24 51°11.044 2°44.874 236.9 14.6 239 8.2
2010-10-12 08:10:29 51°11.034 2°44.846 237 14.5 241 8.4
2010-10-12 08:10:35 51°11.023 2°44.814 239.5 13.8 239 8
2010-10-12 08:10:40 51°11.012 2°44.787 236 14.2 238 8.3
2010-10-12 08:10:45 51°11.003 2°44.759 238.9 14.5 242 8.2
2010-10-12 08:10:49 51°10.995 2°44.736 239.3 14.7 240 8.2
2010-10-12 08:10:55 51°10.984 2°44.702 239.3 14.4 243 8.2
2010-10-12 08:11:00 51°10.974 2°44.676 240.3 14 241 8.2
2010-10-12 08:11:05 51°10.965 2°44.648 239.4 14 241 8.2
2010-10-12 08:11:09 51°10.958 2°44.625 240.2 14.3 243 7.9
2010-10-12 08:11:15 51°10.947 2°44.591 240.7 14.5 243 8.1
2010-10-12 08:11:20 51°10.938 2°44.564 241.8 14.2 244 8
2010-10-12 08:11:25 51°10.928 2°44.537 240.7 14 240 7.9
2010-10-12 08:11:29 51°10.921 2°44.515 240.1 14 243 7.8
2010-10-12 08:11:35 51°10.91 2°44.481 240.3 14.3 243 8.1
2010-10-12 08:11:40 51°10.902 2°44.454 241.4 14 243 7.9
2010-10-12 08:11:44 51°10.894 2°44.433 240.2 13.8 240 7.9
2010-10-12 08:11:50 51°10.884 2°44.399 240 14 244 7.9
2010-10-12 08:11:55 51°10.873 2°44.372 241.1 14.4 241 7.9
2010-10-12 08:12:00 51°10.864 2°44.345 240 14.2 241 8
2010-10-12 08:12:04 51°10.856 2°44.324 238.9 13.9 239 7.8
2010-10-12 08:12:10 51°10.844 2°44.292 238 13.9 240 7.8
2010-10-12 08:12:15 51°10.834 2°44.265 237.7 14 239 7.9
2010-10-12 08:12:20 51°10.824 2°44.238 236.4 14.3 239 7.8
2010-10-12 08:12:25 51°10.814 2°44.212 237.6 13.9 240 7.8
2010-10-12 08:12:29 51°10.806 2°44.191 237.9 13.9 239 5.6
2010-10-12 08:12:35 51°10.796 2°44.157 239.8 14.1 245 7.7
2010-10-12 08:12:40 51°10.786 2°44.131 240.3 14 239 7.6
2010-10-12 08:12:44 51°10.779 2°44.108 239.6 14.1 244 7.9
2010-10-12 08:12:49 51°10.771 2°44.08 243.3 13.8 244 5.6
2010-10-12 08:12:55 51°10.761 2°44.047 242.6 14.1 244 5.5
2010-10-12 08:13:00 51°10.755 2°44.018 245 14.1 250 7.6
2010-10-12 08:13:05 51°10.746 2°43.99 246.9 14 245 7.7
2010-10-12 08:13:09 51°10.74 2°43.967 244.5 13.9 248 7.3
2010-10-12 08:13:15 51°10.731 2°43.933 246.1 14 248 7.4
2010-10-12 08:13:20 51°10.724 2°43.904 247.1 14.1 248 7.5
2010-10-12 08:13:25 51°10.717 2°43.875 248.8 13.8 249 7.5
2010-10-12 08:13:29 51°10.711 2°43.853 247.6 13.8 248 7.2
2010-10-12 08:13:35 51°10.703 2°43.817 247.8 14.1 250 5.6
2010-10-12 08:13:40 51°10.696 2°43.789 249.8 14 249 -999
2010-10-12 08:13:44 51°10.691 2°43.765 248.3 14.1 248 7.4
2010-10-12 08:13:49 51°10.683 2°43.736 247.6 14.1 249 7.4
2010-10-12 08:13:55 51°10.674 2°43.702 248.4 14 247 7.6
2010-10-12 08:14:00 51°10.668 2°43.672 247.4 14.1 249 7.6
2010-10-12 08:14:04 51°10.661 2°43.649 247.6 14.2 247 7.5
2010-10-12 08:14:09 51°10.655 2°43.62 248.1 14.2 250 7.7
2010-10-12 08:14:15 51°10.647 2°43.585 248.4 14 249 5.5
2010-10-12 08:14:20 51°10.639 2°43.556 247.8 14.1 249 5.7
2010-10-12 08:14:24 51°10.634 2°43.533 248.8 14.1 249 7.5
2010-10-12 08:14:29 51°10.626 2°43.504 246.8 14.2 247 7.7
2010-10-12 08:14:35 51°10.618 2°43.469 249.1 14.2 248 7.6
2010-10-12 08:14:40 51°10.61 2°43.44 247 14.2 247 7.6
2010-10-12 08:14:44 51°10.604 2°43.417 246.7 14.1 247 7.7
2010-10-12 08:14:49 51°10.597 2°43.388 247.1 14 249 7.7
2010-10-12 08:14:55 51°10.589 2°43.354 247.5 14 249 7.4
2010-10-12 08:15:00 51°10.582 2°43.325 248.1 14.2 250 7.6
2010-10-12 08:15:05 51°10.576 2°43.295 249.6 14.2 251 7.4
2010-10-12 08:15:09 51°10.57 2°43.271 249.3 14.1 249 7.2
2010-10-12 08:15:15 51°10.562 2°43.237 248.4 14.2 250 7.5
2010-10-12 08:15:20 51°10.555 2°43.208 249 14.1 250 7.8
2010-10-12 08:15:25 51°10.547 2°43.179 248.6 14 247 7.7
2010-10-12 08:15:29 51°10.542 2°43.156 247.3 14.1 249 7.6
2010-10-12 08:15:35 51°10.534 2°43.121 247.4 14 251 7.3
2010-10-12 08:15:40 51°10.525 2°43.093 248.1 13.8 246 7.4
2010-10-12 08:15:45 51°10.518 2°43.064 245.2 14.2 246 7.6
2010-10-12 08:15:50 51°10.51 2°43.036 247.2 14.1 246 7.4
2010-10-12 08:15:55 51°10.501 2°43.008 242.9 14 246 7.5
2010-10-12 08:16:00 51°10.493 2°42.981 243.7 13.8 244 7.3
2010-10-12 08:16:04 51°10.486 2°42.958 242.5 14.1 246 7.6
2010-10-12 08:16:10 51°10.477 2°42.925 245.4 13.8 246 7.4
2010-10-12 08:16:15 51°10.47 2°42.896 243.5 13.9 247 7.4
2010-10-12 08:16:20 51°10.462 2°42.868 245.4 13.9 249 7.6
2010-10-12 08:16:24 51°10.456 2°42.846 246.2 13.9 246 7.4
2010-10-12 08:16:30 51°10.447 2°42.811 244.9 14 247 7.5
2010-10-12 08:16:35 51°10.44 2°42.782 247 13.9 249 5.5
2010-10-12 08:16:40 51°10.433 2°42.754 247.3 13.9 247 5.6
2010-10-12 08:16:44 51°10.428 2°42.731 248.3 13.8 251 7.3
2010-10-12 08:16:49 51°10.421 2°42.703 249.1 13.8 248 -999
2010-10-12 08:16:55 51°10.414 2°42.668 248.9 14 251 7.3
2010-10-12 08:17:00 51°10.408 2°42.639 250.3 13.9 251 7.7
2010-10-12 08:17:05 51°10.401 2°42.61 251.3 13.8 251 7.2
2010-10-12 08:17:09 51°10.396 2°42.586 248.8 14 251 7.3
2010-10-12 08:17:15 51°10.389 2°42.552 251.8 13.8 252 7.5
2010-10-12 08:17:20 51°10.383 2°42.522 250.3 14 251 7.5
2010-10-12 08:17:25 51°10.377 2°42.493 250.5 14 252 -999
2010-10-12 08:17:29 51°10.372 2°42.47 250.9 14 251 7.6
2010-10-12 08:17:35 51°10.366 2°42.434 252 13.9 256 7.4
2010-10-12 08:17:40 51°10.359 2°42.405 253.2 13.9 252 7.3
2010-10-12 08:17:45 51°10.354 2°42.375 250.8 14.2 252 7.7
2010-10-12 08:17:49 51°10.35 2°42.352 254.6 13.8 257 7.3
2010-10-12 08:17:55 51°10.343 2°42.317 253.2 13.8 252 7.6
2010-10-12 08:18:00 51°10.338 2°42.287 251.8 13.9 255 7.5
2010-10-12 08:18:05 51°10.332 2°42.257 253 14.2 253 5.5
2010-10-12 08:18:10 51°10.327 2°42.227 253.6 14.1 256 7.5
2010-10-12 08:18:15 51°10.32 2°42.198 252.5 14 249 7.7
2010-10-12 08:18:20 51°10.315 2°42.169 251.2 14 255 7.4
2010-10-12 08:18:25 51°10.308 2°42.14 251.7 14.1 249 5.6
2010-10-12 08:18:30 51°10.304 2°42.11 251.1 14 255 7.4
2010-10-12 08:18:35 51°10.296 2°42.081 251.6 13.9 251 7.4
2010-10-12 08:18:40 51°10.292 2°42.051 250.8 14 254 7.7
2010-10-12 08:18:44 51°10.286 2°42.028 252.1 14 251 7.6
2010-10-12 08:18:50 51°10.28 2°41.992 251 14.1 254 7.6
2010-10-12 08:18:55 51°10.273 2°41.963 252.3 14.1 250 7.9
2010-10-12 08:19:00 51°10.269 2°41.933 252.6 13.9 256 7.8
2010-10-12 08:19:04 51°10.263 2°41.91 251.7 14 249 7.7
2010-10-12 08:19:09 51°10.258 2°41.88 251.9 14.1 256 7.7
2010-10-12 08:19:15 51°10.25 2°41.845 252 14.1 250 7.8
2010-10-12 08:19:20 51°10.245 2°41.815 251 14.1 254 7.7
2010-10-12 08:19:24 51°10.24 2°41.791 252.9 14 254 7.8
2010-10-12 08:19:29 51°10.234 2°41.762 252.4 13.9 252 7.7
2010-10-12 08:19:35 51°10.228 2°41.726 251.2 14.2 253 8
2010-10-12 08:19:40 51°10.222 2°41.696 253.9 14 255 7.8
2010-10-12 08:19:44 51°10.217 2°41.673 251.2 14.2 250 8
2010-10-12 08:19:49 51°10.212 2°41.643 252.3 14 254 7.9
2010-10-12 08:19:55 51°10.205 2°41.607 251.7 14.1 252 7.8
2010-10-12 08:20:00 51°10.2 2°41.577 252.8 14.1 255 8
2010-10-12 08:20:04 51°10.194 2°41.553 253 14 251 7.8
2010-10-12 08:20:10 51°10.188 2°41.517 251.1 14.1 255 8
2010-10-12 08:20:15 51°10.182 2°41.488 253.9 14.2 252 8.1
2010-10-12 08:20:20 51°10.177 2°41.458 251.2 14.2 255 7.8
2010-10-12 08:20:24 51°10.17 2°41.434 251.4 14.4 250 8.2
2010-10-12 08:20:30 51°10.165 2°41.398 252.8 14.1 256 8
2010-10-12 08:20:35 51°10.156 2°41.37 250.6 14 246 7.9
2010-10-12 08:20:40 51°10.149 2°41.34 246.2 14.4 249 8.1
2010-10-12 08:20:44 51°10.144 2°41.316 248.3 14.2 251 8
2010-10-12 08:20:50 51°10.135 2°41.283 247.2 13.9 246 8.1
2010-10-12 08:20:55 51°10.129 2°41.253 247.9 14.2 251 8
2010-10-12 08:21:00 51°10.123 2°41.222 249.7 14.3 253 8
2010-10-12 08:21:04 51°10.118 2°41.199 251.9 14.1 250 8.2
2010-10-12 08:21:10 51°10.109 2°41.163 248.6 14.3 249 8.1
2010-10-12 08:21:15 51°10.104 2°41.134 249.3 14 253 8.5
2010-10-12 08:21:20 51°10.096 2°41.105 250.5 14 249 8
2010-10-12 08:21:24 51°10.091 2°41.081 247.1 14.5 250 8.2
2010-10-12 08:21:29 51°10.086 2°41.051 250.9 14.2 254 8.1
2010-10-12 08:21:35 51°10.077 2°41.015 250.6 14.2 250 8.3
2010-10-12 08:21:40 51°10.072 2°40.985 249.8 14.2 252 8.4
2010-10-12 08:21:44 51°10.067 2°40.961 251.5 14.3 252 8.2
2010-10-12 08:21:50 51°10.06 2°40.925 251.2 14.2 252 8.4
2010-10-12 08:21:55 51°10.054 2°40.895 252.1 14.3 252 8.5
2010-10-12 08:22:00 51°10.049 2°40.865 252.9 14.3 256 8.4
2010-10-12 08:22:04 51°10.044 2°40.841 252.3 14.4 251 8.3
2010-10-12 08:22:10 51°10.038 2°40.804 253 14.2 257 8.1
2010-10-12 08:22:15 51°10.031 2°40.775 252.8 14.2 250 8.7
2010-10-12 08:22:20 51°10.027 2°40.745 253 14.2 256 8.3
2010-10-12 08:22:24 51°10.021 2°40.722 251.4 14.1 251 8.2
2010-10-12 08:22:30 51°10.014 2°40.685 251.1 14.2 252 8.2
2010-10-12 08:22:35 51°10.008 2°40.655 250.7 14.3 252 8.7
2010-10-12 08:22:40 51°10.002 2°40.626 251.7 14.1 253 8.5
2010-10-12 08:22:44 51°9.996 2°40.602 250 14.2 251 8.5
2010-10-12 08:22:50 51°9.989 2°40.567 251.1 14.1 253 8.4
2010-10-12 08:22:55 51°9.984 2°40.536 251.6 14.1 256 8.5
2010-10-12 08:23:00 51°9.978 2°40.507 252.8 14.1 253 8.5
2010-10-12 08:23:04 51°9.974 2°40.482 252 14.3 255 8.7
2010-10-12 08:23:09 51°9.968 2°40.453 253.2 14.2 252 8.6
2010-10-12 08:23:15 51°9.962 2°40.417 252.2 14.1 254 8.4
2010-10-12 08:23:20 51°9.955 2°40.387 251.8 14.1 252 8.8
2010-10-12 08:23:24 51°9.951 2°40.363 253.2 14.1 254 8.5
2010-10-12 08:23:29 51°9.944 2°40.333 250.6 14.3 250 8.6
2010-10-12 08:23:35 51°9.938 2°40.297 251.5 14.1 255 8.8
2010-10-12 08:23:40 51°9.931 2°40.267 251.9 14.4 249 8.7
2010-10-12 08:23:44 51°9.927 2°40.243 249.6 14.2 255 8.5
2010-10-12 08:23:50 51°9.919 2°40.208 252.7 14.1 251 8.7
2010-10-12 08:23:55 51°9.914 2°40.177 250.2 14.4 254 8.7
2010-10-12 08:24:00 51°9.906 2°40.148 251 14.2 249 8.9
2010-10-12 08:24:04 51°9.903 2°40.124 250.8 14 255 8.5
2010-10-12 08:24:10 51°9.894 2°40.089 250 14.1 248 8.8
2010-10-12 08:24:15 51°9.89 2°40.059 252.3 14.2 257 8.9
2010-10-12 08:24:20 51°9.882 2°40.03 250.9 14.3 248 9
2010-10-12 08:24:24 51°9.879 2°40.005 251.6 14 257 8.8
2010-10-12 08:24:30 51°9.87 2°39.971 251.4 14 248 8.8
2010-10-12 08:24:35 51°9.866 2°39.941 251.2 14.1 256 8.8
2010-10-12 08:24:40 51°9.859 2°39.911 252.5 14.2 251 8.9
2010-10-12 08:24:45 51°9.854 2°39.881 251.9 14.2 254 8.7
2010-10-12 08:24:50 51°9.848 2°39.851 251.9 14.3 252 8.9
2010-10-12 08:24:55 51°9.843 2°39.821 253 14.1 255 8.8
2010-10-12 08:25:00 51°9.836 2°39.792 251.6 14 250 8.8
2010-10-12 08:25:04 51°9.831 2°39.768 250.5 14.3 252 8.9
2010-10-12 08:25:09 51°9.826 2°39.737 252.7 14.3 255 8.6
2010-10-12 08:25:15 51°9.817 2°39.703 248.5 14.2 248 9
2010-10-12 08:25:20 51°9.811 2°39.673 248.2 14 252 8.7
2010-10-12 08:25:24 51°9.805 2°39.65 248.7 14.2 249 9.1
2010-10-12 08:25:29 51°9.8 2°39.62 250.4 14.2 252 8.9
2010-10-12 08:25:35 51°9.792 2°39.583 249.2 14.4 255 9.1
2010-10-12 08:25:40 51°9.786 2°39.555 253.2 14 254 8.8
2010-10-12 08:25:44 51°9.78 2°39.531 248.6 14.2 248 9
2010-10-12 08:25:50 51°9.773 2°39.496 248 14.1 252 9
2010-10-12 08:25:55 51°9.766 2°39.467 250.1 14 249 8.9
2010-10-12 08:26:00 51°9.761 2°39.437 249.4 14.1 253 9
2010-10-12 08:26:04 51°9.756 2°39.413 251.5 14.2 252 9.1
2010-10-12 08:26:09 51°9.75 2°39.383 251.5 14.3 252 8.9
2010-10-12 08:26:15 51°9.743 2°39.347 251.2 14.2 253 8.9
2010-10-12 08:26:20 51°9.737 2°39.317 251.9 14.1 252 9.1
2010-10-12 08:26:24 51°9.733 2°39.293 252.5 14.2 254 9.3
2010-10-12 08:26:29 51°9.726 2°39.263 251.4 14.4 252 9.2
2010-10-12 08:26:35 51°9.721 2°39.226 253.5 14.4 257 9.1
2010-10-12 08:26:40 51°9.713 2°39.197 251.9 14.3 249 9.1
2010-10-12 08:26:45 51°9.709 2°39.166 251.5 14.2 256 9
2010-10-12 08:26:49 51°9.703 2°39.142 251.9 14.3 250 9.2
2010-10-12 08:26:55 51°9.698 2°39.105 252.2 14.3 257 8.9
2010-10-12 08:27:00 51°9.69 2°39.076 253.4 14.3 251 9.3
2010-10-12 08:27:05 51°9.686 2°39.046 251.7 14.1 254 9.4
2010-10-12 08:27:09 51°9.68 2°39.022 252.8 14.2 251 9.4
2010-10-12 08:27:15 51°9.673 2°38.986 249.9 14.3 253 9.3
2010-10-12 08:27:20 51°9.666 2°38.957 251.4 14.3 252 9.5
2010-10-12 08:27:24 51°9.662 2°38.932 250.9 14.3 252 9.4
2010-10-12 08:27:30 51°9.654 2°38.896 250.5 14.3 252 9.2
2010-10-12 08:27:35 51°9.647 2°38.867 252 14.1 249 9.2
2010-10-12 08:27:40 51°9.642 2°38.837 249.4 14.2 253 9.1
2010-10-12 08:27:44 51°9.637 2°38.813 251.2 14.2 253 9.3